sensor_id;sensor_type;location;lat;lon;timestamp;P1;durP1;ratioP1;P2;durP2;ratioP2
42196;SDS011;27866;48.146;17.098;2023-09-08T00:03:38;9.13;;;4.30;;
42196;SDS011;27866;48.146;17.098;2023-09-08T00:07:49;8.73;;;4.70;;
42196;SDS011;27866;48.146;17.098;2023-09-08T00:12:01;9.20;;;4.95;;
42196;SDS011;27866;48.146;17.098;2023-09-08T00:16:12;8.38;;;5.45;;
42196;SDS011;27866;48.146;17.098;2023-09-08T00:20:23;9.00;;;5.32;;
42196;SDS011;27866;48.146;17.098;2023-09-08T00:24:34;8.32;;;5.25;;
42196;SDS011;27866;48.146;17.098;2023-09-08T00:28:46;9.30;;;4.93;;
42196;SDS011;27866;48.146;17.098;2023-09-08T00:32:58;7.28;;;5.00;;
42196;SDS011;27866;48.146;17.098;2023-09-08T00:37:09;6.18;;;4.88;;
42196;SDS011;27866;48.146;17.098;2023-09-08T00:41:20;9.73;;;5.07;;
42196;SDS011;27866;48.146;17.098;2023-09-08T00:45:35;6.55;;;5.00;;
42196;SDS011;27866;48.146;17.098;2023-09-08T00:49:49;8.40;;;4.82;;
42196;SDS011;27866;48.146;17.098;2023-09-08T00:54:01;8.85;;;5.15;;
42196;SDS011;27866;48.146;17.098;2023-09-08T00:58:13;6.65;;;4.88;;
42196;SDS011;27866;48.146;17.098;2023-09-08T01:02:24;8.30;;;4.90;;
42196;SDS011;27866;48.146;17.098;2023-09-08T01:06:36;8.88;;;4.97;;
42196;SDS011;27866;48.146;17.098;2023-09-08T01:10:47;10.63;;;5.65;;
42196;SDS011;27866;48.146;17.098;2023-09-08T01:14:58;10.00;;;5.35;;
42196;SDS011;27866;48.146;17.098;2023-09-08T01:19:11;10.77;;;5.10;;
42196;SDS011;27866;48.146;17.098;2023-09-08T01:23:28;11.88;;;4.93;;
42196;SDS011;27866;48.146;17.098;2023-09-08T01:28:20;10.80;;;5.43;;
42196;SDS011;27866;48.146;17.098;2023-09-08T01:32:34;8.98;;;4.53;;
42196;SDS011;27866;48.146;17.098;2023-09-08T01:36:45;6.72;;;4.80;;
42196;SDS011;27866;48.146;17.098;2023-09-08T01:40:57;9.43;;;4.78;;
42196;SDS011;27866;48.146;17.098;2023-09-08T01:45:08;7.63;;;5.53;;
42196;SDS011;27866;48.146;17.098;2023-09-08T01:49:19;7.75;;;5.00;;
42196;SDS011;27866;48.146;17.098;2023-09-08T01:53:31;10.98;;;5.28;;
42196;SDS011;27866;48.146;17.098;2023-09-08T01:57:42;8.48;;;5.80;;
42196;SDS011;27866;48.146;17.098;2023-09-08T02:01:54;9.02;;;5.30;;
42196;SDS011;27866;48.146;17.098;2023-09-08T02:06:05;7.43;;;4.93;;
42196;SDS011;27866;48.146;17.098;2023-09-08T02:10:16;11.55;;;5.30;;
42196;SDS011;27866;48.146;17.098;2023-09-08T02:18:42;7.68;;;5.13;;
42196;SDS011;27866;48.146;17.098;2023-09-08T02:22:54;6.15;;;5.00;;
42196;SDS011;27866;48.146;17.098;2023-09-08T02:27:06;7.97;;;4.70;;
42196;SDS011;27866;48.146;17.098;2023-09-08T02:31:17;8.48;;;5.07;;
42196;SDS011;27866;48.146;17.098;2023-09-08T02:35:29;11.60;;;5.60;;
42196;SDS011;27866;48.146;17.098;2023-09-08T02:39:43;10.82;;;5.20;;
42196;SDS011;27866;48.146;17.098;2023-09-08T02:43:54;11.55;;;4.95;;
42196;SDS011;27866;48.146;17.098;2023-09-08T02:48:05;8.38;;;5.15;;
42196;SDS011;27866;48.146;17.098;2023-09-08T02:52:17;9.35;;;5.57;;
42196;SDS011;27866;48.146;17.098;2023-09-08T02:56:30;8.85;;;5.25;;
42196;SDS011;27866;48.146;17.098;2023-09-08T03:00:41;10.75;;;5.22;;
42196;SDS011;27866;48.146;17.098;2023-09-08T03:04:52;7.72;;;4.93;;
42196;SDS011;27866;48.146;17.098;2023-09-08T03:09:03;7.45;;;5.10;;
42196;SDS011;27866;48.146;17.098;2023-09-08T03:13:15;6.53;;;4.68;;
42196;SDS011;27866;48.146;17.098;2023-09-08T03:17:27;7.25;;;5.30;;
42196;SDS011;27866;48.146;17.098;2023-09-08T03:21:39;8.57;;;5.68;;
42196;SDS011;27866;48.146;17.098;2023-09-08T03:25:50;8.68;;;5.30;;
42196;SDS011;27866;48.146;17.098;2023-09-08T03:30:01;9.05;;;5.55;;
42196;SDS011;27866;48.146;17.098;2023-09-08T03:34:13;9.05;;;5.22;;
42196;SDS011;27866;48.146;17.098;2023-09-08T03:38:25;10.10;;;4.95;;
42196;SDS011;27866;48.146;17.098;2023-09-08T03:42:37;8.98;;;5.30;;
42196;SDS011;27866;48.146;17.098;2023-09-08T03:46:49;9.32;;;6.03;;
42196;SDS011;27866;48.146;17.098;2023-09-08T03:51:00;11.30;;;5.60;;
42196;SDS011;27866;48.146;17.098;2023-09-08T03:55:11;10.63;;;4.80;;
42196;SDS011;27866;48.146;17.098;2023-09-08T03:59:23;12.63;;;5.82;;
42196;SDS011;27866;48.146;17.098;2023-09-08T04:03:34;9.07;;;5.63;;
42196;SDS011;27866;48.146;17.098;2023-09-08T04:07:46;6.80;;;4.80;;
42196;SDS011;27866;48.146;17.098;2023-09-08T04:11:58;9.45;;;5.13;;
42196;SDS011;27866;48.146;17.098;2023-09-08T04:16:09;8.68;;;5.22;;
42196;SDS011;27866;48.146;17.098;2023-09-08T04:20:20;12.40;;;5.57;;
42196;SDS011;27866;48.146;17.098;2023-09-08T04:24:34;10.45;;;5.70;;
42196;SDS011;27866;48.146;17.098;2023-09-08T04:28:47;9.60;;;5.50;;
42196;SDS011;27866;48.146;17.098;2023-09-08T04:32:58;10.65;;;5.40;;
42196;SDS011;27866;48.146;17.098;2023-09-08T04:37:09;10.98;;;6.05;;
42196;SDS011;27866;48.146;17.098;2023-09-08T04:41:21;12.80;;;6.63;;
42196;SDS011;27866;48.146;17.098;2023-09-08T04:45:32;10.73;;;6.25;;
42196;SDS011;27866;48.146;17.098;2023-09-08T04:49:44;9.73;;;5.85;;
42196;SDS011;27866;48.146;17.098;2023-09-08T04:53:55;8.65;;;5.68;;
42196;SDS011;27866;48.146;17.098;2023-09-08T04:58:06;11.18;;;6.57;;
42196;SDS011;27866;48.146;17.098;2023-09-08T05:02:18;10.68;;;7.50;;
42196;SDS011;27866;48.146;17.098;2023-09-08T05:06:30;8.60;;;5.75;;
42196;SDS011;27866;48.146;17.098;2023-09-08T05:10:43;12.00;;;5.80;;
42196;SDS011;27866;48.146;17.098;2023-09-08T05:14:55;10.63;;;6.35;;
42196;SDS011;27866;48.146;17.098;2023-09-08T05:19:11;9.60;;;5.72;;
42196;SDS011;27866;48.146;17.098;2023-09-08T05:23:26;12.75;;;5.70;;
42196;SDS011;27866;48.146;17.098;2023-09-08T05:27:37;14.40;;;5.32;;
42196;SDS011;27866;48.146;17.098;2023-09-08T05:31:49;10.98;;;5.80;;
42196;SDS011;27866;48.146;17.098;2023-09-08T05:36:00;13.63;;;6.20;;
42196;SDS011;27866;48.146;17.098;2023-09-08T05:40:13;14.20;;;6.15;;
42196;SDS011;27866;48.146;17.098;2023-09-08T05:44:24;20.50;;;6.43;;
42196;SDS011;27866;48.146;17.098;2023-09-08T05:48:37;23.38;;;8.73;;
42196;SDS011;27866;48.146;17.098;2023-09-08T05:52:48;14.98;;;6.43;;
42196;SDS011;27866;48.146;17.098;2023-09-08T05:56:59;10.98;;;5.95;;
42196;SDS011;27866;48.146;17.098;2023-09-08T06:01:11;16.02;;;6.35;;
42196;SDS011;27866;48.146;17.098;2023-09-08T06:05:22;15.15;;;6.10;;
42196;SDS011;27866;48.146;17.098;2023-09-08T06:09:34;9.13;;;5.25;;
42196;SDS011;27866;48.146;17.098;2023-09-08T06:13:47;16.85;;;5.95;;
42196;SDS011;27866;48.146;17.098;2023-09-08T06:17:58;12.88;;;5.82;;
42196;SDS011;27866;48.146;17.098;2023-09-08T06:22:10;11.10;;;5.75;;
42196;SDS011;27866;48.146;17.098;2023-09-08T06:26:21;14.20;;;6.80;;
42196;SDS011;27866;48.146;17.098;2023-09-08T06:30:32;11.70;;;5.82;;
42196;SDS011;27866;48.146;17.098;2023-09-08T06:34:45;10.48;;;5.82;;
42196;SDS011;27866;48.146;17.098;2023-09-08T06:38:56;9.90;;;6.80;;
42196;SDS011;27866;48.146;17.098;2023-09-08T06:43:08;20.48;;;7.75;;
42196;SDS011;27866;48.146;17.098;2023-09-08T06:47:29;31.65;;;7.00;;
42196;SDS011;27866;48.146;17.098;2023-09-08T06:51:41;10.82;;;5.95;;
42196;SDS011;27866;48.146;17.098;2023-09-08T06:55:52;9.02;;;6.00;;
42196;SDS011;27866;48.146;17.098;2023-09-08T07:00:04;9.73;;;5.30;;
42196;SDS011;27866;48.146;17.098;2023-09-08T07:04:17;13.13;;;6.35;;
42196;SDS011;27866;48.146;17.098;2023-09-08T07:08:28;10.77;;;5.05;;
42196;SDS011;27866;48.146;17.098;2023-09-08T07:12:39;8.27;;;5.13;;
42196;SDS011;27866;48.146;17.098;2023-09-08T07:16:51;11.63;;;5.22;;
42196;SDS011;27866;48.146;17.098;2023-09-08T07:21:02;10.48;;;7.45;;
42196;SDS011;27866;48.146;17.098;2023-09-08T07:25:14;10.98;;;5.82;;
42196;SDS011;27866;48.146;17.098;2023-09-08T07:29:26;12.95;;;5.18;;
42196;SDS011;27866;48.146;17.098;2023-09-08T07:33:38;13.65;;;5.45;;
42196;SDS011;27866;48.146;17.098;2023-09-08T07:37:49;13.52;;;5.30;;
42196;SDS011;27866;48.146;17.098;2023-09-08T07:42:02;10.70;;;5.63;;
42196;SDS011;27866;48.146;17.098;2023-09-08T07:46:14;10.32;;;5.70;;
42196;SDS011;27866;48.146;17.098;2023-09-08T07:50:26;9.82;;;5.47;;
42196;SDS011;27866;48.146;17.098;2023-09-08T07:54:39;11.10;;;5.43;;
42196;SDS011;27866;48.146;17.098;2023-09-08T07:58:50;11.43;;;6.22;;
42196;SDS011;27866;48.146;17.098;2023-09-08T08:03:02;31.95;;;12.18;;
42196;SDS011;27866;48.146;17.098;2023-09-08T08:07:13;9.40;;;6.15;;
42196;SDS011;27866;48.146;17.098;2023-09-08T08:11:24;10.85;;;5.50;;
42196;SDS011;27866;48.146;17.098;2023-09-08T08:15:37;10.10;;;5.63;;
42196;SDS011;27866;48.146;17.098;2023-09-08T08:19:52;8.52;;;5.00;;
42196;SDS011;27866;48.146;17.098;2023-09-08T08:24:04;11.88;;;5.90;;
42196;SDS011;27866;48.146;17.098;2023-09-08T08:28:16;12.63;;;6.20;;
42196;SDS011;27866;48.146;17.098;2023-09-08T08:32:27;12.68;;;6.53;;
42196;SDS011;27866;48.146;17.098;2023-09-08T08:36:41;12.55;;;5.75;;
42196;SDS011;27866;48.146;17.098;2023-09-08T08:40:53;11.98;;;6.07;;
42196;SDS011;27866;48.146;17.098;2023-09-08T08:45:04;17.80;;;6.53;;
42196;SDS011;27866;48.146;17.098;2023-09-08T08:49:16;8.88;;;5.30;;
42196;SDS011;27866;48.146;17.098;2023-09-08T08:53:28;15.15;;;7.20;;
42196;SDS011;27866;48.146;17.098;2023-09-08T08:57:41;14.00;;;5.75;;
42196;SDS011;27866;48.146;17.098;2023-09-08T09:01:53;9.60;;;5.25;;
42196;SDS011;27866;48.146;17.098;2023-09-08T09:06:06;9.70;;;5.47;;
42196;SDS011;27866;48.146;17.098;2023-09-08T09:10:17;13.10;;;5.78;;
42196;SDS011;27866;48.146;17.098;2023-09-08T09:14:32;14.25;;;6.40;;
42196;SDS011;27866;48.146;17.098;2023-09-08T09:18:54;9.25;;;5.78;;
42196;SDS011;27866;48.146;17.098;2023-09-08T09:23:07;12.70;;;5.47;;
42196;SDS011;27866;48.146;17.098;2023-09-08T09:27:19;14.02;;;5.03;;
42196;SDS011;27866;48.146;17.098;2023-09-08T09:31:32;11.40;;;4.80;;
42196;SDS011;27866;48.146;17.098;2023-09-08T09:35:44;13.77;;;7.05;;
42196;SDS011;27866;48.146;17.098;2023-09-08T09:40:05;12.87;;;5.10;;
42196;SDS011;27866;48.146;17.098;2023-09-08T09:44:18;12.65;;;5.53;;
42196;SDS011;27866;48.146;17.098;2023-09-08T09:48:29;10.23;;;5.20;;
42196;SDS011;27866;48.146;17.098;2023-09-08T09:52:41;11.05;;;5.13;;
42196;SDS011;27866;48.146;17.098;2023-09-08T09:56:52;11.07;;;5.15;;
42196;SDS011;27866;48.146;17.098;2023-09-08T10:01:04;8.57;;;5.13;;
42196;SDS011;27866;48.146;17.098;2023-09-08T10:05:16;12.65;;;4.93;;
42196;SDS011;27866;48.146;17.098;2023-09-08T10:09:28;7.50;;;4.90;;
42196;SDS011;27866;48.146;17.098;2023-09-08T10:13:41;8.35;;;5.00;;
42196;SDS011;27866;48.146;17.098;2023-09-08T10:17:56;10.40;;;5.88;;
42196;SDS011;27866;48.146;17.098;2023-09-08T10:22:11;6.32;;;4.72;;
42196;SDS011;27866;48.146;17.098;2023-09-08T10:26:26;9.57;;;5.18;;
42196;SDS011;27866;48.146;17.098;2023-09-08T10:30:39;9.15;;;4.60;;
42196;SDS011;27866;48.146;17.098;2023-09-08T10:34:52;7.90;;;4.57;;
42196;SDS011;27866;48.146;17.098;2023-09-08T10:43:56;6.45;;;4.28;;
42196;SDS011;27866;48.146;17.098;2023-09-08T10:48:11;7.90;;;4.00;;
42196;SDS011;27866;48.146;17.098;2023-09-08T10:52:26;6.07;;;4.43;;
42196;SDS011;27866;48.146;17.098;2023-09-08T10:56:56;4.90;;;3.60;;
42196;SDS011;27866;48.146;17.098;2023-09-08T11:01:08;5.43;;;3.45;;
42196;SDS011;27866;48.146;17.098;2023-09-08T11:05:26;7.07;;;4.07;;
42196;SDS011;27866;48.146;17.098;2023-09-08T11:09:37;5.80;;;3.83;;
42196;SDS011;27866;48.146;17.098;2023-09-08T11:13:48;8.38;;;4.07;;
42196;SDS011;27866;48.146;17.098;2023-09-08T11:18:04;10.02;;;3.90;;
42196;SDS011;27866;48.146;17.098;2023-09-08T11:22:17;5.85;;;4.00;;
42196;SDS011;27866;48.146;17.098;2023-09-08T11:26:28;7.28;;;3.92;;
42196;SDS011;27866;48.146;17.098;2023-09-08T11:30:42;5.10;;;3.10;;
42196;SDS011;27866;48.146;17.098;2023-09-08T11:35:01;4.75;;;3.58;;
42196;SDS011;27866;48.146;17.098;2023-09-08T11:39:23;8.02;;;3.60;;
42196;SDS011;27866;48.146;17.098;2023-09-08T11:43:37;6.10;;;3.38;;
42196;SDS011;27866;48.146;17.098;2023-09-08T11:47:49;8.80;;;3.65;;
42196;SDS011;27866;48.146;17.098;2023-09-08T11:52:03;4.60;;;3.30;;
42196;SDS011;27866;48.146;17.098;2023-09-08T11:56:15;6.78;;;3.42;;
42196;SDS011;27866;48.146;17.098;2023-09-08T12:00:27;5.38;;;3.33;;
42196;SDS011;27866;48.146;17.098;2023-09-08T12:04:39;6.00;;;3.25;;
42196;SDS011;27866;48.146;17.098;2023-09-08T12:08:53;12.40;;;4.10;;
42196;SDS011;27866;48.146;17.098;2023-09-08T12:13:06;5.93;;;3.20;;
42196;SDS011;27866;48.146;17.098;2023-09-08T12:17:17;5.40;;;3.15;;
42196;SDS011;27866;48.146;17.098;2023-09-08T12:21:35;6.00;;;2.92;;
42196;SDS011;27866;48.146;17.098;2023-09-08T12:26:10;5.05;;;3.00;;
42196;SDS011;27866;48.146;17.098;2023-09-08T12:30:22;4.53;;;3.53;;
42196;SDS011;27866;48.146;17.098;2023-09-08T12:34:43;5.65;;;3.55;;
42196;SDS011;27866;48.146;17.098;2023-09-08T12:38:54;6.75;;;2.78;;
42196;SDS011;27866;48.146;17.098;2023-09-08T12:43:06;4.13;;;2.67;;
42196;SDS011;27866;48.146;17.098;2023-09-08T12:47:17;3.80;;;2.80;;
42196;SDS011;27866;48.146;17.098;2023-09-08T12:51:28;6.00;;;3.05;;
42196;SDS011;27866;48.146;17.098;2023-09-08T12:55:40;4.00;;;2.90;;
42196;SDS011;27866;48.146;17.098;2023-09-08T12:59:51;4.38;;;3.05;;
42196;SDS011;27866;48.146;17.098;2023-09-08T13:04:02;3.33;;;2.85;;
42196;SDS011;27866;48.146;17.098;2023-09-08T13:08:14;5.82;;;2.92;;
42196;SDS011;27866;48.146;17.098;2023-09-08T13:12:25;4.80;;;2.92;;
42196;SDS011;27866;48.146;17.098;2023-09-08T13:16:37;4.85;;;2.83;;
42196;SDS011;27866;48.146;17.098;2023-09-08T13:20:48;6.45;;;3.78;;
42196;SDS011;27866;48.146;17.098;2023-09-08T13:24:59;9.75;;;2.88;;
42196;SDS011;27866;48.146;17.098;2023-09-08T13:29:10;3.17;;;2.80;;
42196;SDS011;27866;48.146;17.098;2023-09-08T13:33:22;4.38;;;2.80;;
42196;SDS011;27866;48.146;17.098;2023-09-08T13:37:33;6.00;;;2.90;;
42196;SDS011;27866;48.146;17.098;2023-09-08T13:41:45;10.13;;;3.22;;
42196;SDS011;27866;48.146;17.098;2023-09-08T13:46:07;5.25;;;2.92;;
42196;SDS011;27866;48.146;17.098;2023-09-08T13:50:20;6.72;;;2.67;;
42196;SDS011;27866;48.146;17.098;2023-09-08T13:54:34;4.78;;;2.80;;
42196;SDS011;27866;48.146;17.098;2023-09-08T13:58:45;4.50;;;2.78;;
42196;SDS011;27866;48.146;17.098;2023-09-08T14:02:56;3.35;;;2.88;;
42196;SDS011;27866;48.146;17.098;2023-09-08T14:07:08;3.85;;;2.60;;
42196;SDS011;27866;48.146;17.098;2023-09-08T14:11:21;4.35;;;2.45;;
42196;SDS011;27866;48.146;17.098;2023-09-08T14:15:33;3.83;;;2.80;;
42196;SDS011;27866;48.146;17.098;2023-09-08T14:19:44;3.97;;;2.88;;
42196;SDS011;27866;48.146;17.098;2023-09-08T14:23:55;4.95;;;3.33;;
42196;SDS011;27866;48.146;17.098;2023-09-08T14:28:06;7.72;;;3.10;;
42196;SDS011;27866;48.146;17.098;2023-09-08T14:32:18;7.50;;;3.25;;
42196;SDS011;27866;48.146;17.098;2023-09-08T14:36:29;5.30;;;2.70;;
42196;SDS011;27866;48.146;17.098;2023-09-08T14:40:40;4.53;;;2.78;;
42196;SDS011;27866;48.146;17.098;2023-09-08T14:44:52;4.93;;;2.75;;
42196;SDS011;27866;48.146;17.098;2023-09-08T14:49:03;8.05;;;3.50;;
42196;SDS011;27866;48.146;17.098;2023-09-08T14:53:14;4.20;;;2.78;;
42196;SDS011;27866;48.146;17.098;2023-09-08T14:57:25;4.85;;;2.97;;
42196;SDS011;27866;48.146;17.098;2023-09-08T15:01:37;4.85;;;3.13;;
42196;SDS011;27866;48.146;17.098;2023-09-08T15:05:50;5.28;;;2.78;;
42196;SDS011;27866;48.146;17.098;2023-09-08T15:14:14;5.07;;;3.03;;
42196;SDS011;27866;48.146;17.098;2023-09-08T15:22:37;5.05;;;3.00;;
42196;SDS011;27866;48.146;17.098;2023-09-08T15:26:48;9.75;;;3.20;;
42196;SDS011;27866;48.146;17.098;2023-09-08T15:31:00;4.88;;;3.10;;
42196;SDS011;27866;48.146;17.098;2023-09-08T15:35:11;3.92;;;3.03;;
42196;SDS011;27866;48.146;17.098;2023-09-08T15:39:23;3.97;;;3.10;;
42196;SDS011;27866;48.146;17.098;2023-09-08T15:43:35;6.00;;;3.60;;
42196;SDS011;27866;48.146;17.098;2023-09-08T15:47:48;5.43;;;3.55;;
42196;SDS011;27866;48.146;17.098;2023-09-08T15:51:59;6.05;;;3.40;;
42196;SDS011;27866;48.146;17.098;2023-09-08T15:56:11;5.15;;;3.95;;
42196;SDS011;27866;48.146;17.098;2023-09-08T16:00:22;6.30;;;4.25;;
42196;SDS011;27866;48.146;17.098;2023-09-08T16:04:33;7.63;;;4.10;;
42196;SDS011;27866;48.146;17.098;2023-09-08T16:08:45;7.70;;;4.05;;
42196;SDS011;27866;48.146;17.098;2023-09-08T16:12:56;7.65;;;4.53;;
42196;SDS011;27866;48.146;17.098;2023-09-08T16:17:08;10.13;;;4.50;;
42196;SDS011;27866;48.146;17.098;2023-09-08T16:21:19;7.65;;;3.90;;
42196;SDS011;27866;48.146;17.098;2023-09-08T16:25:31;7.18;;;4.00;;
42196;SDS011;27866;48.146;17.098;2023-09-08T16:29:43;11.80;;;4.43;;
42196;SDS011;27866;48.146;17.098;2023-09-08T16:33:55;9.25;;;4.30;;
42196;SDS011;27866;48.146;17.098;2023-09-08T16:38:07;7.00;;;3.95;;
42196;SDS011;27866;48.146;17.098;2023-09-08T16:42:20;8.07;;;3.95;;
42196;SDS011;27866;48.146;17.098;2023-09-08T16:46:31;16.73;;;5.07;;
42196;SDS011;27866;48.146;17.098;2023-09-08T16:50:43;14.18;;;4.78;;
42196;SDS011;27866;48.146;17.098;2023-09-08T16:54:54;14.93;;;4.60;;
42196;SDS011;27866;48.146;17.098;2023-09-08T16:59:05;38.42;;;6.32;;
42196;SDS011;27866;48.146;17.098;2023-09-08T17:03:16;9.02;;;4.75;;
42196;SDS011;27866;48.146;17.098;2023-09-08T17:07:28;12.80;;;4.80;;
42196;SDS011;27866;48.146;17.098;2023-09-08T17:11:39;10.85;;;5.22;;
42196;SDS011;27866;48.146;17.098;2023-09-08T17:15:51;12.77;;;5.13;;
42196;SDS011;27866;48.146;17.098;2023-09-08T17:20:02;6.97;;;4.95;;
42196;SDS011;27866;48.146;17.098;2023-09-08T17:24:14;23.38;;;5.45;;
42196;SDS011;27866;48.146;17.098;2023-09-08T17:28:26;10.50;;;5.20;;
42196;SDS011;27866;48.146;17.098;2023-09-08T17:32:37;8.95;;;4.63;;
42196;SDS011;27866;48.146;17.098;2023-09-08T17:36:52;14.05;;;5.07;;
42196;SDS011;27866;48.146;17.098;2023-09-08T17:41:06;12.55;;;5.60;;
42196;SDS011;27866;48.146;17.098;2023-09-08T17:45:17;12.85;;;4.72;;
42196;SDS011;27866;48.146;17.098;2023-09-08T17:49:29;6.50;;;4.38;;
42196;SDS011;27866;48.146;17.098;2023-09-08T17:53:40;7.50;;;4.65;;
42196;SDS011;27866;48.146;17.098;2023-09-08T17:57:51;8.35;;;5.07;;
42196;SDS011;27866;48.146;17.098;2023-09-08T18:02:02;15.50;;;5.25;;
42196;SDS011;27866;48.146;17.098;2023-09-08T18:06:15;11.30;;;5.10;;
42196;SDS011;27866;48.146;17.098;2023-09-08T18:10:26;7.95;;;4.82;;
42196;SDS011;27866;48.146;17.098;2023-09-08T18:14:37;9.73;;;4.93;;
42196;SDS011;27866;48.146;17.098;2023-09-08T18:18:49;15.60;;;5.10;;
42196;SDS011;27866;48.146;17.098;2023-09-08T18:23:00;9.65;;;5.63;;
42196;SDS011;27866;48.146;17.098;2023-09-08T18:27:11;8.40;;;5.00;;
42196;SDS011;27866;48.146;17.098;2023-09-08T18:31:22;7.43;;;4.90;;
42196;SDS011;27866;48.146;17.098;2023-09-08T18:35:36;7.03;;;4.78;;
42196;SDS011;27866;48.146;17.098;2023-09-08T18:39:50;10.23;;;4.75;;
42196;SDS011;27866;48.146;17.098;2023-09-08T18:44:01;9.35;;;4.72;;
42196;SDS011;27866;48.146;17.098;2023-09-08T18:48:12;11.30;;;5.15;;
42196;SDS011;27866;48.146;17.098;2023-09-08T18:52:24;10.40;;;5.18;;
42196;SDS011;27866;48.146;17.098;2023-09-08T18:56:35;10.32;;;5.18;;
42196;SDS011;27866;48.146;17.098;2023-09-08T19:00:46;10.98;;;5.60;;
42196;SDS011;27866;48.146;17.098;2023-09-08T19:04:57;10.70;;;5.25;;
42196;SDS011;27866;48.146;17.098;2023-09-08T19:09:09;8.00;;;5.00;;
42196;SDS011;27866;48.146;17.098;2023-09-08T19:13:20;9.02;;;4.75;;
42196;SDS011;27866;48.146;17.098;2023-09-08T19:17:31;11.30;;;4.82;;
42196;SDS011;27866;48.146;17.098;2023-09-08T19:21:42;13.57;;;5.50;;
42196;SDS011;27866;48.146;17.098;2023-09-08T19:25:54;9.20;;;5.78;;
42196;SDS011;27866;48.146;17.098;2023-09-08T19:30:05;9.90;;;5.75;;
42196;SDS011;27866;48.146;17.098;2023-09-08T19:34:17;11.38;;;5.82;;
42196;SDS011;27866;48.146;17.098;2023-09-08T19:38:28;9.30;;;5.90;;
42196;SDS011;27866;48.146;17.098;2023-09-08T19:42:40;11.90;;;6.50;;
42196;SDS011;27866;48.146;17.098;2023-09-08T19:46:51;11.15;;;5.85;;
42196;SDS011;27866;48.146;17.098;2023-09-08T19:51:02;9.93;;;5.40;;
42196;SDS011;27866;48.146;17.098;2023-09-08T19:55:14;10.10;;;5.50;;
42196;SDS011;27866;48.146;17.098;2023-09-08T19:59:25;11.35;;;5.28;;
42196;SDS011;27866;48.146;17.098;2023-09-08T20:03:36;10.65;;;5.82;;
42196;SDS011;27866;48.146;17.098;2023-09-08T20:07:48;12.15;;;5.47;;
42196;SDS011;27866;48.146;17.098;2023-09-08T20:12:01;10.63;;;5.80;;
42196;SDS011;27866;48.146;17.098;2023-09-08T20:16:12;10.90;;;6.55;;
42196;SDS011;27866;48.146;17.098;2023-09-08T20:20:23;9.88;;;6.03;;
42196;SDS011;27866;48.146;17.098;2023-09-08T20:24:35;13.15;;;6.28;;
42196;SDS011;27866;48.146;17.098;2023-09-08T20:28:46;10.65;;;6.35;;
42196;SDS011;27866;48.146;17.098;2023-09-08T20:32:59;11.18;;;6.60;;
42196;SDS011;27866;48.146;17.098;2023-09-08T20:37:10;10.05;;;6.55;;
42196;SDS011;27866;48.146;17.098;2023-09-08T20:41:21;14.00;;;6.60;;
42196;SDS011;27866;48.146;17.098;2023-09-08T20:45:33;11.48;;;7.05;;
42196;SDS011;27866;48.146;17.098;2023-09-08T20:49:45;14.27;;;6.15;;
42196;SDS011;27866;48.146;17.098;2023-09-08T20:53:56;12.07;;;6.72;;
42196;SDS011;27866;48.146;17.098;2023-09-08T20:58:07;9.63;;;6.35;;
42196;SDS011;27866;48.146;17.098;2023-09-08T21:02:18;9.27;;;6.07;;
42196;SDS011;27866;48.146;17.098;2023-09-08T21:06:30;10.38;;;6.38;;
42196;SDS011;27866;48.146;17.098;2023-09-08T21:10:41;12.95;;;6.80;;
42196;SDS011;27866;48.146;17.098;2023-09-08T21:14:53;11.30;;;6.47;;
42196;SDS011;27866;48.146;17.098;2023-09-08T21:19:04;9.43;;;5.88;;
42196;SDS011;27866;48.146;17.098;2023-09-08T21:23:16;9.77;;;6.18;;
42196;SDS011;27866;48.146;17.098;2023-09-08T21:27:28;14.85;;;6.13;;
42196;SDS011;27866;48.146;17.098;2023-09-08T21:31:39;11.43;;;5.85;;
42196;SDS011;27866;48.146;17.098;2023-09-08T21:35:50;9.95;;;5.55;;
42196;SDS011;27866;48.146;17.098;2023-09-08T21:40:01;12.05;;;6.75;;
42196;SDS011;27866;48.146;17.098;2023-09-08T21:44:13;14.57;;;6.75;;
42196;SDS011;27866;48.146;17.098;2023-09-08T21:48:25;11.13;;;5.82;;
42196;SDS011;27866;48.146;17.098;2023-09-08T21:52:36;9.45;;;6.13;;
42196;SDS011;27866;48.146;17.098;2023-09-08T21:56:48;11.98;;;6.47;;
42196;SDS011;27866;48.146;17.098;2023-09-08T22:00:59;9.93;;;6.00;;
42196;SDS011;27866;48.146;17.098;2023-09-08T22:05:11;9.65;;;5.90;;
42196;SDS011;27866;48.146;17.098;2023-09-08T22:09:22;8.45;;;6.13;;
42196;SDS011;27866;48.146;17.098;2023-09-08T22:13:33;11.93;;;6.70;;
42196;SDS011;27866;48.146;17.098;2023-09-08T22:17:45;10.93;;;6.53;;
42196;SDS011;27866;48.146;17.098;2023-09-08T22:21:56;10.00;;;6.10;;
42196;SDS011;27866;48.146;17.098;2023-09-08T22:26:14;8.48;;;6.10;;
42196;SDS011;27866;48.146;17.098;2023-09-08T22:30:26;11.95;;;6.32;;
42196;SDS011;27866;48.146;17.098;2023-09-08T22:34:37;13.25;;;7.18;;
42196;SDS011;27866;48.146;17.098;2023-09-08T22:38:48;10.38;;;6.22;;
42196;SDS011;27866;48.146;17.098;2023-09-08T22:43:00;9.30;;;6.00;;
42196;SDS011;27866;48.146;17.098;2023-09-08T22:47:11;8.43;;;5.63;;
42196;SDS011;27866;48.146;17.098;2023-09-08T22:51:22;8.75;;;5.50;;
42196;SDS011;27866;48.146;17.098;2023-09-08T22:55:33;8.63;;;5.70;;
42196;SDS011;27866;48.146;17.098;2023-09-08T22:59:45;8.00;;;5.47;;
42196;SDS011;27866;48.146;17.098;2023-09-08T23:03:56;12.68;;;5.80;;
42196;SDS011;27866;48.146;17.098;2023-09-08T23:08:07;9.43;;;4.82;;
42196;SDS011;27866;48.146;17.098;2023-09-08T23:12:19;9.00;;;5.57;;
42196;SDS011;27866;48.146;17.098;2023-09-08T23:16:30;7.53;;;4.80;;
42196;SDS011;27866;48.146;17.098;2023-09-08T23:20:41;8.45;;;5.35;;
42196;SDS011;27866;48.146;17.098;2023-09-08T23:24:52;10.90;;;4.97;;
42196;SDS011;27866;48.146;17.098;2023-09-08T23:29:04;8.25;;;5.47;;
42196;SDS011;27866;48.146;17.098;2023-09-08T23:33:15;8.80;;;5.40;;
42196;SDS011;27866;48.146;17.098;2023-09-08T23:37:27;9.93;;;5.85;;
42196;SDS011;27866;48.146;17.098;2023-09-08T23:41:38;10.82;;;5.55;;
42196;SDS011;27866;48.146;17.098;2023-09-08T23:45:49;11.25;;;5.55;;
42196;SDS011;27866;48.146;17.098;2023-09-08T23:50:01;9.70;;;5.95;;
42196;SDS011;27866;48.146;17.098;2023-09-08T23:54:13;12.82;;;6.00;;
42196;SDS011;27866;48.146;17.098;2023-09-08T23:58:24;10.85;;;5.70;;
